sensor_id;sensor_type;location;lat;lon;timestamp;temperature;humidity
66740;DHT22;53653;52.188;8.602;2023-10-08T00:01:18;18.50;82.66
66740;DHT22;53653;52.188;8.602;2023-10-08T00:03:45;18.44;82.92
66740;DHT22;53653;52.188;8.602;2023-10-08T00:06:21;18.51;82.81
66740;DHT22;53653;52.188;8.602;2023-10-08T00:08:47;18.48;82.84
66740;DHT22;53653;52.188;8.602;2023-10-08T00:11:13;18.50;82.97
66740;DHT22;53653;52.188;8.602;2023-10-08T00:13:42;18.51;82.90
66740;DHT22;53653;52.188;8.602;2023-10-08T00:16:08;18.50;83.03
66740;DHT22;53653;52.188;8.602;2023-10-08T00:18:41;18.51;82.96
66740;DHT22;53653;52.188;8.602;2023-10-08T00:21:14;18.45;83.18
66740;DHT22;53653;52.188;8.602;2023-10-08T00:23:40;18.54;83.26
66740;DHT22;53653;52.188;8.602;2023-10-08T00:26:10;18.43;83.97
66740;DHT22;53653;52.188;8.602;2023-10-08T00:28:35;18.36;84.76
66740;DHT22;53653;52.188;8.602;2023-10-08T00:31:01;16.79;85.51
66740;DHT22;53653;52.188;8.602;2023-10-08T00:33:38;15.05;89.37
66740;DHT22;53653;52.188;8.602;2023-10-08T00:36:04;14.44;91.14
66740;DHT22;53653;52.188;8.602;2023-10-08T00:38:43;14.02;91.76
66740;DHT22;53653;52.188;8.602;2023-10-08T00:41:14;13.74;92.01
66740;DHT22;53653;52.188;8.602;2023-10-08T00:43:40;13.57;92.09
66740;DHT22;53653;52.188;8.602;2023-10-08T00:46:07;13.43;92.43
66740;DHT22;53653;52.188;8.602;2023-10-08T00:48:47;13.26;92.91
66740;DHT22;53653;52.188;8.602;2023-10-08T00:51:14;13.07;92.62
66740;DHT22;53653;52.188;8.602;2023-10-08T00:56:26;12.88;93.01
66740;DHT22;53653;52.188;8.602;2023-10-08T00:59:09;12.80;93.51
66740;DHT22;53653;52.188;8.602;2023-10-08T01:01:39;12.86;93.07
66740;DHT22;53653;52.188;8.602;2023-10-08T01:04:04;12.86;92.80
66740;DHT22;53653;52.188;8.602;2023-10-08T01:06:37;12.68;93.52
66740;DHT22;53653;52.188;8.602;2023-10-08T01:09:05;12.73;93.97
66740;DHT22;53653;52.188;8.602;2023-10-08T01:11:42;12.73;94.33
66740;DHT22;53653;52.188;8.602;2023-10-08T01:14:16;12.66;94.06
66740;DHT22;53653;52.188;8.602;2023-10-08T01:16:42;12.65;94.47
66740;DHT22;53653;52.188;8.602;2023-10-08T01:19:12;12.55;94.81
66740;DHT22;53653;52.188;8.602;2023-10-08T01:21:43;12.59;95.26
66740;DHT22;53653;52.188;8.602;2023-10-08T01:24:09;12.59;95.28
66740;DHT22;53653;52.188;8.602;2023-10-08T01:26:39;12.52;94.57
66740;DHT22;53653;52.188;8.602;2023-10-08T01:29:09;12.48;95.62
66740;DHT22;53653;52.188;8.602;2023-10-08T01:31:47;12.51;95.17
66740;DHT22;53653;52.188;8.602;2023-10-08T01:34:18;12.45;95.35
66740;DHT22;53653;52.188;8.602;2023-10-08T01:36:43;12.51;95.48
66740;DHT22;53653;52.188;8.602;2023-10-08T01:39:11;12.51;94.93
66740;DHT22;53653;52.188;8.602;2023-10-08T01:41:43;12.48;95.03
66740;DHT22;53653;52.188;8.602;2023-10-08T01:44:09;12.52;95.05
66740;DHT22;53653;52.188;8.602;2023-10-08T01:46:35;12.52;95.07
66740;DHT22;53653;52.188;8.602;2023-10-08T01:49:01;12.51;94.96
66740;DHT22;53653;52.188;8.602;2023-10-08T01:51:34;12.51;94.43
66740;DHT22;53653;52.188;8.602;2023-10-08T01:54:03;12.55;94.09
66740;DHT22;53653;52.188;8.602;2023-10-08T01:56:37;12.49;94.67
66740;DHT22;53653;52.188;8.602;2023-10-08T01:59:03;12.35;94.36
66740;DHT22;53653;52.188;8.602;2023-10-08T02:01:29;12.28;94.80
66740;DHT22;53653;52.188;8.602;2023-10-08T02:03:55;12.25;95.31
66740;DHT22;53653;52.188;8.602;2023-10-08T02:06:20;12.17;95.94
66740;DHT22;53653;52.188;8.602;2023-10-08T02:08:46;12.13;97.08
66740;DHT22;53653;52.188;8.602;2023-10-08T02:11:12;12.05;97.15
66740;DHT22;53653;52.188;8.602;2023-10-08T02:13:41;12.01;96.44
66740;DHT22;53653;52.188;8.602;2023-10-08T02:16:07;11.90;96.20
66740;DHT22;53653;52.188;8.602;2023-10-08T02:18:33;12.01;95.80
66740;DHT22;53653;52.188;8.602;2023-10-08T02:20:58;12.03;95.71
66740;DHT22;53653;52.188;8.602;2023-10-08T02:23:24;12.00;94.59
66740;DHT22;53653;52.188;8.602;2023-10-08T02:25:49;11.86;93.85
66740;DHT22;53653;52.188;8.602;2023-10-08T02:28:15;11.84;93.57
66740;DHT22;53653;52.188;8.602;2023-10-08T02:30:42;11.90;93.64
66740;DHT22;53653;52.188;8.602;2023-10-08T02:33:08;11.90;94.19
66740;DHT22;53653;52.188;8.602;2023-10-08T02:35:44;11.84;93.78
66740;DHT22;53653;52.188;8.602;2023-10-08T02:38:16;11.90;93.60
66740;DHT22;53653;52.188;8.602;2023-10-08T02:40:42;11.73;94.36
66740;DHT22;53653;52.188;8.602;2023-10-08T02:43:14;11.55;95.01
66740;DHT22;53653;52.188;8.602;2023-10-08T02:45:41;11.46;95.80
66740;DHT22;53653;52.188;8.602;2023-10-08T02:48:07;11.59;96.35
66740;DHT22;53653;52.188;8.602;2023-10-08T02:50:40;11.58;96.62
66740;DHT22;53653;52.188;8.602;2023-10-08T02:53:06;11.49;95.33
66740;DHT22;53653;52.188;8.602;2023-10-08T02:55:37;11.53;95.59
66740;DHT22;53653;52.188;8.602;2023-10-08T02:58:08;11.53;94.83
66740;DHT22;53653;52.188;8.602;2023-10-08T03:00:41;11.55;95.39
66740;DHT22;53653;52.188;8.602;2023-10-08T03:03:06;11.56;94.38
66740;DHT22;53653;52.188;8.602;2023-10-08T03:05:43;11.61;94.77
66740;DHT22;53653;52.188;8.602;2023-10-08T03:08:09;11.62;94.36
66740;DHT22;53653;52.188;8.602;2023-10-08T03:10:38;11.63;93.64
66740;DHT22;53653;52.188;8.602;2023-10-08T03:13:05;11.67;93.48
66740;DHT22;53653;52.188;8.602;2023-10-08T03:15:32;11.66;92.84
66740;DHT22;53653;52.188;8.602;2023-10-08T03:18:18;11.61;93.26
66740;DHT22;53653;52.188;8.602;2023-10-08T03:20:46;11.61;92.56
66740;DHT22;53653;52.188;8.602;2023-10-08T03:23:13;11.58;92.39
66740;DHT22;53653;52.188;8.602;2023-10-08T03:25:54;11.58;92.34
66740;DHT22;53653;52.188;8.602;2023-10-08T03:28:28;11.58;91.96
66740;DHT22;53653;52.188;8.602;2023-10-08T03:30:55;11.59;92.45
66740;DHT22;53653;52.188;8.602;2023-10-08T03:33:39;11.59;92.60
66740;DHT22;53653;52.188;8.602;2023-10-08T03:36:07;11.58;91.55
66740;DHT22;53653;52.188;8.602;2023-10-08T03:39:00;11.62;91.45
66740;DHT22;53653;52.188;8.602;2023-10-08T03:41:34;11.65;91.29
66740;DHT22;53653;52.188;8.602;2023-10-08T03:44:05;11.73;91.16
66740;DHT22;53653;52.188;8.602;2023-10-08T03:46:35;11.73;91.51
66740;DHT22;53653;52.188;8.602;2023-10-08T03:49:07;11.72;91.16
66740;DHT22;53653;52.188;8.602;2023-10-08T03:51:42;11.76;90.31
66740;DHT22;53653;52.188;8.602;2023-10-08T03:54:07;11.75;90.57
66740;DHT22;53653;52.188;8.602;2023-10-08T03:56:32;11.89;90.10
66740;DHT22;53653;52.188;8.602;2023-10-08T03:59:02;11.94;89.88
66740;DHT22;53653;52.188;8.602;2023-10-08T04:01:46;11.94;89.46
66740;DHT22;53653;52.188;8.602;2023-10-08T04:04:15;11.97;88.92
66740;DHT22;53653;52.188;8.602;2023-10-08T04:06:41;12.03;88.34
66740;DHT22;53653;52.188;8.602;2023-10-08T04:09:15;11.98;90.06
66740;DHT22;53653;52.188;8.602;2023-10-08T04:11:51;11.94;89.56
66740;DHT22;53653;52.188;8.602;2023-10-08T04:14:18;11.89;90.59
66740;DHT22;53653;52.188;8.602;2023-10-08T04:16:44;11.77;90.61
66740;DHT22;53653;52.188;8.602;2023-10-08T04:19:10;11.73;91.10
66740;DHT22;53653;52.188;8.602;2023-10-08T04:21:36;11.67;91.53
66740;DHT22;53653;52.188;8.602;2023-10-08T04:24:02;11.61;91.63
66740;DHT22;53653;52.188;8.602;2023-10-08T04:26:29;11.61;91.54
66740;DHT22;53653;52.188;8.602;2023-10-08T04:28:57;11.65;92.38
66740;DHT22;53653;52.188;8.602;2023-10-08T04:31:27;11.63;91.85
66740;DHT22;53653;52.188;8.602;2023-10-08T04:34:02;11.70;92.16
66740;DHT22;53653;52.188;8.602;2023-10-08T04:36:32;11.67;91.64
66740;DHT22;53653;52.188;8.602;2023-10-08T04:38:57;11.59;91.16
66740;DHT22;53653;52.188;8.602;2023-10-08T04:41:29;11.62;91.67
66740;DHT22;53653;52.188;8.602;2023-10-08T04:43:55;11.61;91.04
66740;DHT22;53653;52.188;8.602;2023-10-08T04:46:21;11.65;91.35
66740;DHT22;53653;52.188;8.602;2023-10-08T04:49:15;11.72;91.70
66740;DHT22;53653;52.188;8.602;2023-10-08T04:52:05;11.73;92.59
66740;DHT22;53653;52.188;8.602;2023-10-08T04:54:34;11.76;91.30
66740;DHT22;53653;52.188;8.602;2023-10-08T04:57:06;11.77;91.55
66740;DHT22;53653;52.188;8.602;2023-10-08T04:59:32;11.80;91.05
66740;DHT22;53653;52.188;8.602;2023-10-08T05:02:03;11.84;90.27
66740;DHT22;53653;52.188;8.602;2023-10-08T05:04:41;11.91;91.18
66740;DHT22;53653;52.188;8.602;2023-10-08T05:07:12;11.91;89.70
66740;DHT22;53653;52.188;8.602;2023-10-08T05:10:06;11.91;89.52
66740;DHT22;53653;52.188;8.602;2023-10-08T05:12:32;11.87;89.68
66740;DHT22;53653;52.188;8.602;2023-10-08T05:15:05;11.91;89.53
66740;DHT22;53653;52.188;8.602;2023-10-08T05:17:41;12.05;89.93
66740;DHT22;53653;52.188;8.602;2023-10-08T05:20:19;12.04;89.32
66740;DHT22;53653;52.188;8.602;2023-10-08T05:22:56;12.18;89.36
66740;DHT22;53653;52.188;8.602;2023-10-08T05:25:31;12.38;88.40
66740;DHT22;53653;52.188;8.602;2023-10-08T05:28:22;12.52;88.02
66740;DHT22;53653;52.188;8.602;2023-10-08T05:30:52;12.52;88.38
66740;DHT22;53653;52.188;8.602;2023-10-08T05:33:30;12.46;88.36
66740;DHT22;53653;52.188;8.602;2023-10-08T05:36:14;12.40;87.67
66740;DHT22;53653;52.188;8.602;2023-10-08T05:38:54;12.28;87.94
66740;DHT22;53653;52.188;8.602;2023-10-08T05:41:45;12.27;88.76
66740;DHT22;53653;52.188;8.602;2023-10-08T05:44:18;12.24;89.57
66740;DHT22;53653;52.188;8.602;2023-10-08T05:46:43;12.20;90.15
66740;DHT22;53653;52.188;8.602;2023-10-08T05:49:14;12.13;90.40
66740;DHT22;53653;52.188;8.602;2023-10-08T05:51:41;12.13;90.55
66740;DHT22;53653;52.188;8.602;2023-10-08T05:54:15;12.17;90.33
66740;DHT22;53653;52.188;8.602;2023-10-08T05:56:53;12.28;90.27
66740;DHT22;53653;52.188;8.602;2023-10-08T05:59:45;12.25;89.86
66740;DHT22;53653;52.188;8.602;2023-10-08T06:05:14;12.31;90.09
66740;DHT22;53653;52.188;8.602;2023-10-08T06:07:51;12.42;89.88
66740;DHT22;53653;52.188;8.602;2023-10-08T06:10:26;12.48;89.40
66740;DHT22;53653;52.188;8.602;2023-10-08T06:13:08;12.53;89.14
66740;DHT22;53653;52.188;8.602;2023-10-08T06:15:52;12.59;88.97
66740;DHT22;53653;52.188;8.602;2023-10-08T06:18:27;12.66;88.82
66740;DHT22;53653;52.188;8.602;2023-10-08T06:20:54;12.62;88.62
66740;DHT22;53653;52.188;8.602;2023-10-08T06:23:26;12.62;88.40
66740;DHT22;53653;52.188;8.602;2023-10-08T06:25:54;12.44;88.80
66740;DHT22;53653;52.188;8.602;2023-10-08T06:28:22;12.35;89.73
66740;DHT22;53653;52.188;8.602;2023-10-08T06:30:51;12.31;91.11
66740;DHT22;53653;52.188;8.602;2023-10-08T06:33:20;12.30;90.93
66740;DHT22;53653;52.188;8.602;2023-10-08T06:35:50;12.37;90.62
66740;DHT22;53653;52.188;8.602;2023-10-08T06:38:32;12.44;90.40
66740;DHT22;53653;52.188;8.602;2023-10-08T06:40:58;12.51;90.26
66740;DHT22;53653;52.188;8.602;2023-10-08T06:43:36;12.52;90.21
66740;DHT22;53653;52.188;8.602;2023-10-08T06:46:03;12.62;90.04
66740;DHT22;53653;52.188;8.602;2023-10-08T06:48:29;12.68;89.86
66740;DHT22;53653;52.188;8.602;2023-10-08T06:50:55;12.78;89.82
66740;DHT22;53653;52.188;8.602;2023-10-08T06:53:24;12.85;89.59
66740;DHT22;53653;52.188;8.602;2023-10-08T06:55:50;12.93;89.26
66740;DHT22;53653;52.188;8.602;2023-10-08T06:58:23;13.00;88.97
66740;DHT22;53653;52.188;8.602;2023-10-08T07:00:48;13.03;88.65
66740;DHT22;53653;52.188;8.602;2023-10-08T07:03:16;12.92;88.77
66740;DHT22;53653;52.188;8.602;2023-10-08T07:05:45;12.93;89.20
66740;DHT22;53653;52.188;8.602;2023-10-08T07:08:22;12.88;89.02
66740;DHT22;53653;52.188;8.602;2023-10-08T07:10:53;12.90;89.06
66740;DHT22;53653;52.188;8.602;2023-10-08T07:13:19;13.00;89.04
66740;DHT22;53653;52.188;8.602;2023-10-08T07:15:51;13.20;88.62
66740;DHT22;53653;52.188;8.602;2023-10-08T07:18:18;13.19;88.27
66740;DHT22;53653;52.188;8.602;2023-10-08T07:20:54;13.21;88.52
66740;DHT22;53653;52.188;8.602;2023-10-08T07:23:21;13.21;88.99
66740;DHT22;53653;52.188;8.602;2023-10-08T07:26:01;13.30;88.57
66740;DHT22;53653;52.188;8.602;2023-10-08T07:28:42;13.41;87.57
66740;DHT22;53653;52.188;8.602;2023-10-08T07:33:54;13.26;87.82
66740;DHT22;53653;52.188;8.602;2023-10-08T07:36:24;13.48;88.13
66740;DHT22;53653;52.188;8.602;2023-10-08T07:38:51;13.71;86.54
66740;DHT22;53653;52.188;8.602;2023-10-08T07:41:17;13.79;85.87
66740;DHT22;53653;52.188;8.602;2023-10-08T07:43:45;13.85;85.69
66740;DHT22;53653;52.188;8.602;2023-10-08T07:46:24;13.89;86.45
66740;DHT22;53653;52.188;8.602;2023-10-08T07:48:54;13.83;85.41
66740;DHT22;53653;52.188;8.602;2023-10-08T07:51:20;13.83;86.88
66740;DHT22;53653;52.188;8.602;2023-10-08T07:53:52;13.72;86.66
66740;DHT22;53653;52.188;8.602;2023-10-08T07:56:25;13.79;86.16
66740;DHT22;53653;52.188;8.602;2023-10-08T07:58:54;13.77;85.67
66740;DHT22;53653;52.188;8.602;2023-10-08T08:01:23;13.95;86.06
66740;DHT22;53653;52.188;8.602;2023-10-08T08:03:50;13.92;86.10
66740;DHT22;53653;52.188;8.602;2023-10-08T08:06:16;14.20;84.98
66740;DHT22;53653;52.188;8.602;2023-10-08T08:08:42;14.20;85.23
66740;DHT22;53653;52.188;8.602;2023-10-08T08:11:10;15.18;82.19
66740;DHT22;53653;52.188;8.602;2023-10-08T08:13:39;15.98;80.13
66740;DHT22;53653;52.188;8.602;2023-10-08T08:16:08;15.39;80.84
66740;DHT22;53653;52.188;8.602;2023-10-08T08:18:51;15.47;81.80
66740;DHT22;53653;52.188;8.602;2023-10-08T08:21:23;15.74;78.53
66740;DHT22;53653;52.188;8.602;2023-10-08T08:23:49;15.64;78.66
66740;DHT22;53653;52.188;8.602;2023-10-08T08:26:23;15.36;80.84
66740;DHT22;53653;52.188;8.602;2023-10-08T08:28:59;15.33;80.45
66740;DHT22;53653;52.188;8.602;2023-10-08T08:31:28;14.30;83.75
66740;DHT22;53653;52.188;8.602;2023-10-08T08:33:57;13.99;84.02
66740;DHT22;53653;52.188;8.602;2023-10-08T08:36:31;14.08;83.96
66740;DHT22;53653;52.188;8.602;2023-10-08T08:39:03;14.36;82.85
66740;DHT22;53653;52.188;8.602;2023-10-08T08:41:30;14.64;82.95
66740;DHT22;53653;52.188;8.602;2023-10-08T08:43:55;14.91;80.32
66740;DHT22;53653;52.188;8.602;2023-10-08T08:46:31;15.15;79.36
66740;DHT22;53653;52.188;8.602;2023-10-08T08:49:02;15.36;78.65
66740;DHT22;53653;52.188;8.602;2023-10-08T08:51:30;15.59;77.87
66740;DHT22;53653;52.188;8.602;2023-10-08T08:53:56;15.53;77.54
66740;DHT22;53653;52.188;8.602;2023-10-08T08:56:26;15.43;77.58
66740;DHT22;53653;52.188;8.602;2023-10-08T08:58:51;15.53;76.83
66740;DHT22;53653;52.188;8.602;2023-10-08T09:01:19;15.53;76.32
66740;DHT22;53653;52.188;8.602;2023-10-08T09:03:45;15.36;77.20
66740;DHT22;53653;52.188;8.602;2023-10-08T09:06:13;15.01;77.44
66740;DHT22;53653;52.188;8.602;2023-10-08T09:08:39;15.15;78.81
66740;DHT22;53653;52.188;8.602;2023-10-08T09:11:17;15.35;76.97
66740;DHT22;53653;52.188;8.602;2023-10-08T09:13:43;15.33;75.72
66740;DHT22;53653;52.188;8.602;2023-10-08T09:16:16;15.36;75.65
66740;DHT22;53653;52.188;8.602;2023-10-08T09:18:44;15.28;76.49
66740;DHT22;53653;52.188;8.602;2023-10-08T09:21:15;15.22;76.09
66740;DHT22;53653;52.188;8.602;2023-10-08T09:23:48;14.73;78.46
66740;DHT22;53653;52.188;8.602;2023-10-08T09:26:17;14.30;82.08
66740;DHT22;53653;52.188;8.602;2023-10-08T09:28:46;14.54;81.26
66740;DHT22;53653;52.188;8.602;2023-10-08T09:31:14;15.06;79.97
66740;DHT22;53653;52.188;8.602;2023-10-08T09:33:40;14.84;80.87
66740;DHT22;53653;52.188;8.602;2023-10-08T09:36:09;14.85;78.70
66740;DHT22;53653;52.188;8.602;2023-10-08T09:38:37;15.52;79.48
66740;DHT22;53653;52.188;8.602;2023-10-08T09:41:03;15.77;75.81
66740;DHT22;53653;52.188;8.602;2023-10-08T09:43:31;15.22;77.12
66740;DHT22;53653;52.188;8.602;2023-10-08T09:46:10;15.15;76.36
66740;DHT22;53653;52.188;8.602;2023-10-08T09:48:38;15.32;76.71
66740;DHT22;53653;52.188;8.602;2023-10-08T09:51:08;15.19;74.77
66740;DHT22;53653;52.188;8.602;2023-10-08T09:56:36;15.31;74.88
66740;DHT22;53653;52.188;8.602;2023-10-08T09:59:02;15.49;73.77
66740;DHT22;53653;52.188;8.602;2023-10-08T10:01:28;15.97;73.43
66740;DHT22;53653;52.188;8.602;2023-10-08T10:03:54;16.66;69.99
66740;DHT22;53653;52.188;8.602;2023-10-08T10:06:20;17.03;68.01
66740;DHT22;53653;52.188;8.602;2023-10-08T10:08:47;17.38;66.71
66740;DHT22;53653;52.188;8.602;2023-10-08T10:11:15;17.03;67.51
66740;DHT22;53653;52.188;8.602;2023-10-08T10:13:45;16.56;69.21
66740;DHT22;53653;52.188;8.602;2023-10-08T10:16:18;16.76;69.60
66740;DHT22;53653;52.188;8.602;2023-10-08T10:18:48;16.66;69.64
66740;DHT22;53653;52.188;8.602;2023-10-08T10:23:45;16.48;68.91
66740;DHT22;53653;52.188;8.602;2023-10-08T10:26:36;17.27;68.75
66740;DHT22;53653;52.188;8.602;2023-10-08T10:31:53;17.96;66.02
66740;DHT22;53653;52.188;8.602;2023-10-08T10:34:24;17.93;65.27
66740;DHT22;53653;52.188;8.602;2023-10-08T10:36:53;17.81;66.02
66740;DHT22;53653;52.188;8.602;2023-10-08T10:39:25;16.96;65.62
66740;DHT22;53653;52.188;8.602;2023-10-08T10:41:59;16.62;66.66
66740;DHT22;53653;52.188;8.602;2023-10-08T10:44:30;16.49;67.11
66740;DHT22;53653;52.188;8.602;2023-10-08T10:46:56;15.86;68.15
66740;DHT22;53653;52.188;8.602;2023-10-08T10:49:40;15.35;68.60
66740;DHT22;53653;52.188;8.602;2023-10-08T10:52:28;15.15;69.01
66740;DHT22;53653;52.188;8.602;2023-10-08T10:55:07;15.62;68.78
66740;DHT22;53653;52.188;8.602;2023-10-08T10:57:53;15.73;69.72
66740;DHT22;53653;52.188;8.602;2023-10-08T11:00:42;15.81;69.77
66740;DHT22;53653;52.188;8.602;2023-10-08T11:03:08;15.86;70.23
66740;DHT22;53653;52.188;8.602;2023-10-08T11:05:44;15.94;69.58
66740;DHT22;53653;52.188;8.602;2023-10-08T11:08:14;15.57;70.13
66740;DHT22;53653;52.188;8.602;2023-10-08T11:10:42;15.42;71.30
66740;DHT22;53653;52.188;8.602;2023-10-08T11:13:19;15.42;69.29
66740;DHT22;53653;52.188;8.602;2023-10-08T11:15:50;15.47;70.00
66740;DHT22;53653;52.188;8.602;2023-10-08T11:18:22;15.50;69.57
66740;DHT22;53653;52.188;8.602;2023-10-08T11:20:50;15.59;69.41
66740;DHT22;53653;52.188;8.602;2023-10-08T11:23:46;15.80;69.20
66740;DHT22;53653;52.188;8.602;2023-10-08T11:26:18;16.12;68.51
66740;DHT22;53653;52.188;8.602;2023-10-08T11:28:45;16.04;69.00
66740;DHT22;53653;52.188;8.602;2023-10-08T11:31:17;15.90;68.88
66740;DHT22;53653;52.188;8.602;2023-10-08T11:33:47;16.01;68.78
66740;DHT22;53653;52.188;8.602;2023-10-08T11:36:20;15.81;69.58
66740;DHT22;53653;52.188;8.602;2023-10-08T11:38:53;15.86;69.21
66740;DHT22;53653;52.188;8.602;2023-10-08T11:41:21;16.24;67.91
66740;DHT22;53653;52.188;8.602;2023-10-08T11:43:54;16.36;67.51
66740;DHT22;53653;52.188;8.602;2023-10-08T11:46:26;16.42;67.44
66740;DHT22;53653;52.188;8.602;2023-10-08T11:48:56;16.87;65.83
66740;DHT22;53653;52.188;8.602;2023-10-08T11:51:24;17.47;63.85
66740;DHT22;53653;52.188;8.602;2023-10-08T11:53:50;18.27;61.68
66740;DHT22;53653;52.188;8.602;2023-10-08T11:56:17;17.55;61.92
66740;DHT22;53653;52.188;8.602;2023-10-08T11:58:46;16.81;64.42
66740;DHT22;53653;52.188;8.602;2023-10-08T12:01:12;16.47;65.98
66740;DHT22;53653;52.188;8.602;2023-10-08T12:03:44;16.90;63.53
66740;DHT22;53653;52.188;8.602;2023-10-08T12:06:13;17.31;64.00
66740;DHT22;53653;52.188;8.602;2023-10-08T12:08:47;17.58;63.26
66740;DHT22;53653;52.188;8.602;2023-10-08T12:11:13;16.69;64.00
66740;DHT22;53653;52.188;8.602;2023-10-08T12:13:40;16.68;62.65
66740;DHT22;53653;52.188;8.602;2023-10-08T12:16:16;17.11;59.39
66740;DHT22;53653;52.188;8.602;2023-10-08T12:18:47;16.63;60.32
66740;DHT22;53653;52.188;8.602;2023-10-08T12:21:29;16.48;63.03
66740;DHT22;53653;52.188;8.602;2023-10-08T12:23:55;16.86;63.07
66740;DHT22;53653;52.188;8.602;2023-10-08T12:26:22;16.73;62.99
66740;DHT22;53653;52.188;8.602;2023-10-08T12:28:48;16.86;61.78
66740;DHT22;53653;52.188;8.602;2023-10-08T12:31:17;17.11;62.18
66740;DHT22;53653;52.188;8.602;2023-10-08T12:33:48;17.34;60.54
66740;DHT22;53653;52.188;8.602;2023-10-08T12:36:13;17.27;60.80
66740;DHT22;53653;52.188;8.602;2023-10-08T12:38:40;16.99;62.21
66740;DHT22;53653;52.188;8.602;2023-10-08T12:41:07;17.55;61.96
66740;DHT22;53653;52.188;8.602;2023-10-08T12:43:43;17.59;61.89
66740;DHT22;53653;52.188;8.602;2023-10-08T12:46:11;17.49;62.31
66740;DHT22;53653;52.188;8.602;2023-10-08T12:48:44;18.29;60.71
66740;DHT22;53653;52.188;8.602;2023-10-08T12:51:10;17.74;61.89
66740;DHT22;53653;52.188;8.602;2023-10-08T12:53:36;17.20;62.86
66740;DHT22;53653;52.188;8.602;2023-10-08T12:56:03;17.49;62.85
66740;DHT22;53653;52.188;8.602;2023-10-08T12:58:34;17.71;62.77
66740;DHT22;53653;52.188;8.602;2023-10-08T13:01:19;17.93;61.71
66740;DHT22;53653;52.188;8.602;2023-10-08T13:03:45;17.54;60.80
66740;DHT22;53653;52.188;8.602;2023-10-08T13:06:16;18.32;60.16
66740;DHT22;53653;52.188;8.602;2023-10-08T13:08:52;18.17;60.11
66740;DHT22;53653;52.188;8.602;2023-10-08T13:11:19;18.60;60.09
66740;DHT22;53653;52.188;8.602;2023-10-08T13:13:57;19.08;59.67
66740;DHT22;53653;52.188;8.602;2023-10-08T13:16:24;18.00;60.39
66740;DHT22;53653;52.188;8.602;2023-10-08T13:18:50;17.11;63.38
66740;DHT22;53653;52.188;8.602;2023-10-08T13:21:17;17.55;62.79
66740;DHT22;53653;52.188;8.602;2023-10-08T13:23:47;17.44;62.94
66740;DHT22;53653;52.188;8.602;2023-10-08T13:26:14;17.69;63.51
66740;DHT22;53653;52.188;8.602;2023-10-08T13:28:43;17.55;62.50
66740;DHT22;53653;52.188;8.602;2023-10-08T13:31:08;17.95;60.87
66740;DHT22;53653;52.188;8.602;2023-10-08T13:33:41;18.37;61.54
66740;DHT22;53653;52.188;8.602;2023-10-08T13:36:14;18.58;59.23
66740;DHT22;53653;52.188;8.602;2023-10-08T13:38:40;18.88;58.89
66740;DHT22;53653;52.188;8.602;2023-10-08T13:41:09;18.91;59.71
66740;DHT22;53653;52.188;8.602;2023-10-08T13:43:46;18.40;59.98
66740;DHT22;53653;52.188;8.602;2023-10-08T13:46:16;18.36;61.48
66740;DHT22;53653;52.188;8.602;2023-10-08T13:48:47;17.92;61.30
66740;DHT22;53653;52.188;8.602;2023-10-08T13:51:20;17.58;61.88
66740;DHT22;53653;52.188;8.602;2023-10-08T13:53:49;17.66;62.81
66740;DHT22;53653;52.188;8.602;2023-10-08T13:56:21;17.69;61.98
66740;DHT22;53653;52.188;8.602;2023-10-08T13:58:52;17.69;61.47
66740;DHT22;53653;52.188;8.602;2023-10-08T14:01:28;17.81;61.19
66740;DHT22;53653;52.188;8.602;2023-10-08T14:03:53;17.81;62.19
66740;DHT22;53653;52.188;8.602;2023-10-08T14:06:21;18.04;62.13
66740;DHT22;53653;52.188;8.602;2023-10-08T14:08:47;18.02;62.55
66740;DHT22;53653;52.188;8.602;2023-10-08T14:11:21;17.96;62.55
66740;DHT22;53653;52.188;8.602;2023-10-08T14:13:52;17.87;62.22
66740;DHT22;53653;52.188;8.602;2023-10-08T14:16:19;17.78;63.21
66740;DHT22;53653;52.188;8.602;2023-10-08T14:18:50;17.75;64.06
66740;DHT22;53653;52.188;8.602;2023-10-08T14:21:19;17.61;64.36
66740;DHT22;53653;52.188;8.602;2023-10-08T14:23:49;17.71;64.63
66740;DHT22;53653;52.188;8.602;2023-10-08T14:26:17;17.52;65.00
66740;DHT22;53653;52.188;8.602;2023-10-08T14:28:48;17.24;65.92
66740;DHT22;53653;52.188;8.602;2023-10-08T14:31:18;16.84;66.98
66740;DHT22;53653;52.188;8.602;2023-10-08T14:33:48;16.68;67.25
66740;DHT22;53653;52.188;8.602;2023-10-08T14:36:44;16.93;67.36
66740;DHT22;53653;52.188;8.602;2023-10-08T14:39:29;16.76;68.35
66740;DHT22;53653;52.188;8.602;2023-10-08T14:42:15;16.60;68.40
66740;DHT22;53653;52.188;8.602;2023-10-08T14:44:59;16.80;67.96
66740;DHT22;53653;52.188;8.602;2023-10-08T14:47:26;16.77;67.68
66740;DHT22;53653;52.188;8.602;2023-10-08T14:49:51;16.68;69.30
66740;DHT22;53653;52.188;8.602;2023-10-08T14:52:17;16.47;70.17
66740;DHT22;53653;52.188;8.602;2023-10-08T14:54:44;16.55;70.62
66740;DHT22;53653;52.188;8.602;2023-10-08T14:57:10;16.75;70.50
66740;DHT22;53653;52.188;8.602;2023-10-08T14:59:42;16.81;69.76
66740;DHT22;53653;52.188;8.602;2023-10-08T15:02:08;17.02;69.53
66740;DHT22;53653;52.188;8.602;2023-10-08T15:04:36;17.11;68.94
66740;DHT22;53653;52.188;8.602;2023-10-08T15:07:05;17.23;68.58
66740;DHT22;53653;52.188;8.602;2023-10-08T15:09:34;17.18;68.55
66740;DHT22;53653;52.188;8.602;2023-10-08T15:11:59;17.13;68.99
66740;DHT22;53653;52.188;8.602;2023-10-08T15:14:25;17.07;69.02
66740;DHT22;53653;52.188;8.602;2023-10-08T15:16:52;17.08;69.36
66740;DHT22;53653;52.188;8.602;2023-10-08T15:19:21;17.04;69.70
66740;DHT22;53653;52.188;8.602;2023-10-08T15:21:51;16.69;69.76
66740;DHT22;53653;52.188;8.602;2023-10-08T15:24:18;16.65;70.08
66740;DHT22;53653;52.188;8.602;2023-10-08T15:26:43;16.15;71.40
66740;DHT22;53653;52.188;8.602;2023-10-08T15:29:09;16.18;71.78
66740;DHT22;53653;52.188;8.602;2023-10-08T15:31:35;16.20;71.40
66740;DHT22;53653;52.188;8.602;2023-10-08T15:34:01;16.24;71.15
66740;DHT22;53653;52.188;8.602;2023-10-08T15:36:30;15.90;72.13
66740;DHT22;53653;52.188;8.602;2023-10-08T15:38:55;15.86;72.16
66740;DHT22;53653;52.188;8.602;2023-10-08T15:41:21;15.96;71.89
66740;DHT22;53653;52.188;8.602;2023-10-08T15:43:50;16.07;71.66
66740;DHT22;53653;52.188;8.602;2023-10-08T15:46:17;15.97;71.96
66740;DHT22;53653;52.188;8.602;2023-10-08T15:48:42;15.81;73.07
66740;DHT22;53653;52.188;8.602;2023-10-08T15:51:08;15.71;72.66
66740;DHT22;53653;52.188;8.602;2023-10-08T15:53:34;15.70;72.64
66740;DHT22;53653;52.188;8.602;2023-10-08T15:56:00;15.71;72.44
66740;DHT22;53653;52.188;8.602;2023-10-08T15:58:25;15.60;72.90
66740;DHT22;53653;52.188;8.602;2023-10-08T16:00:51;15.64;72.69
66740;DHT22;53653;52.188;8.602;2023-10-08T16:03:19;15.59;72.75
66740;DHT22;53653;52.188;8.602;2023-10-08T16:05:45;15.50;73.01
66740;DHT22;53653;52.188;8.602;2023-10-08T16:08:14;15.54;72.95